createdAt,value
2023-05-19T00:01:47.350Z,65.76
2023-05-19T00:04:13.629Z,64.98
2023-05-19T00:06:39.900Z,65.46
2023-05-19T00:09:06.172Z,65.29
2023-05-19T00:11:32.435Z,63.76
2023-05-19T00:13:58.705Z,64.08
2023-05-19T00:16:25.122Z,64.11
2023-05-19T00:18:51.788Z,64.08
2023-05-19T00:21:18.108Z,64.79
2023-05-19T00:23:44.405Z,66.00
2023-05-19T00:26:10.667Z,66.01
2023-05-19T00:28:36.945Z,66.54
2023-05-19T00:31:03.202Z,66.88
2023-05-19T00:33:29.495Z,65.56
2023-05-19T00:35:55.792Z,66.82
2023-05-19T00:38:22.070Z,69.29
2023-05-19T00:40:48.340Z,68.25
2023-05-19T00:43:14.616Z,66.46
2023-05-19T00:45:40.898Z,69.07
2023-05-19T00:48:07.267Z,67.37
2023-05-19T00:50:33.899Z,65.94
2023-05-19T00:53:00.382Z,65.25
2023-05-19T00:55:26.650Z,65.90
2023-05-19T00:57:52.911Z,65.16
2023-05-19T01:00:19.196Z,64.57
2023-05-19T01:02:45.569Z,64.46
2023-05-19T01:05:11.981Z,64.24
2023-05-19T01:07:38.253Z,64.43
2023-05-19T01:10:04.560Z,67.20
2023-05-19T01:12:30.845Z,70.45
2023-05-19T01:14:57.122Z,67.06
2023-05-19T01:17:23.477Z,65.73
2023-05-19T01:19:49.747Z,66.26
2023-05-19T01:22:16.063Z,66.13
2023-05-19T01:24:42.339Z,66.12
2023-05-19T01:27:08.616Z,66.29
2023-05-19T01:29:34.875Z,67.61
2023-05-19T01:32:01.195Z,69.68
2023-05-19T01:34:27.487Z,70.21
2023-05-19T01:36:53.785Z,67.44
2023-05-19T01:39:20.067Z,66.73
2023-05-19T01:41:46.344Z,66.00
2023-05-19T01:44:12.607Z,68.17
2023-05-19T01:46:38.889Z,69.16
2023-05-19T01:49:05.150Z,68.54
2023-05-19T01:51:31.412Z,68.00
2023-05-19T01:53:57.691Z,67.36
2023-05-19T01:56:24.002Z,66.69
2023-05-19T01:58:50.250Z,66.17
2023-05-19T02:01:16.552Z,66.60
2023-05-19T02:03:42.857Z,65.68
2023-05-19T02:06:09.132Z,65.37
2023-05-19T02:08:35.413Z,65.12
2023-05-19T02:11:01.704Z,65.17
2023-05-19T02:13:27.983Z,65.33
2023-05-19T02:15:54.293Z,66.00
2023-05-19T02:18:20.589Z,64.89
2023-05-19T02:20:46.860Z,66.56
2023-05-19T02:23:13.124Z,65.63
2023-05-19T02:25:39.386Z,64.06
2023-05-19T02:28:05.661Z,64.38
2023-05-19T02:30:32.317Z,63.35
2023-05-19T02:32:58.891Z,63.63
2023-05-19T02:35:25.255Z,64.60
2023-05-19T02:37:51.537Z,66.25
2023-05-19T02:40:17.821Z,68.02
2023-05-19T02:42:44.099Z,68.20
2023-05-19T02:45:10.362Z,69.64
2023-05-19T02:47:37.310Z,68.16
2023-05-19T02:50:03.649Z,66.55
2023-05-19T02:52:29.924Z,67.34
2023-05-19T02:54:56.232Z,66.32
2023-05-19T02:57:22.512Z,66.46
2023-05-19T02:59:48.761Z,65.08
2023-05-19T03:02:15.052Z,64.83
2023-05-19T03:04:41.412Z,64.40
2023-05-19T03:07:07.694Z,63.61
2023-05-19T03:09:34.021Z,63.33
2023-05-19T03:12:00.282Z,63.65
2023-05-19T03:14:26.570Z,63.97
2023-05-19T03:16:52.981Z,63.93
2023-05-19T03:19:19.422Z,64.40
2023-05-19T03:21:45.727Z,64.43
2023-05-19T03:24:12.011Z,64.39
2023-05-19T03:26:38.275Z,67.22
2023-05-19T03:29:04.539Z,68.31
2023-05-19T03:31:30.801Z,66.60
2023-05-19T03:33:57.066Z,65.43
2023-05-19T03:36:23.334Z,65.14
2023-05-19T03:38:49.595Z,65.20
2023-05-19T03:41:15.885Z,65.60
2023-05-19T03:43:42.172Z,64.89
2023-05-19T03:46:08.540Z,64.69
2023-05-19T03:48:34.850Z,64.08
2023-05-19T03:51:01.134Z,63.85
2023-05-19T03:53:27.412Z,63.71
2023-05-19T03:55:53.674Z,64.60
2023-05-19T03:58:19.986Z,64.56
2023-05-19T04:00:46.305Z,65.38
2023-05-19T04:03:12.725Z,68.97
2023-05-19T04:05:39.137Z,70.83
2023-05-19T04:08:05.399Z,71.10
2023-05-19T04:10:31.816Z,69.26
2023-05-19T04:12:58.252Z,68.07
2023-05-19T04:15:24.512Z,66.88
2023-05-19T04:17:50.889Z,66.07
2023-05-19T04:20:17.205Z,65.59
2023-05-19T04:22:43.514Z,64.70
2023-05-19T04:25:09.777Z,64.14
2023-05-19T04:27:36.103Z,64.51
2023-05-19T04:30:02.465Z,64.86
2023-05-19T04:32:28.810Z,64.42
2023-05-19T04:34:55.106Z,63.63
2023-05-19T04:37:21.404Z,64.19
2023-05-19T04:39:47.673Z,63.77
2023-05-19T04:42:13.924Z,63.41
2023-05-19T04:44:40.302Z,63.55
2023-05-19T04:47:06.705Z,63.40
2023-05-19T04:49:33.012Z,63.67
2023-05-19T04:51:59.332Z,63.48
2023-05-19T04:54:25.675Z,62.74
2023-05-19T04:56:52.017Z,62.60
2023-05-19T04:59:18.283Z,62.63
2023-05-19T05:01:44.568Z,62.23
2023-05-19T05:04:10.879Z,62.18
2023-05-19T05:06:37.167Z,62.83
2023-05-19T05:09:03.434Z,65.18
2023-05-19T05:11:29.763Z,64.76
2023-05-19T05:13:56.020Z,66.07
2023-05-19T05:16:22.410Z,66.38
2023-05-19T05:18:48.801Z,65.36
2023-05-19T05:21:15.116Z,64.18
2023-05-19T05:23:41.411Z,64.99
2023-05-19T05:26:07.663Z,65.42
2023-05-19T05:28:33.919Z,65.20
2023-05-19T05:31:00.281Z,67.23
2023-05-19T05:33:26.697Z,66.41
2023-05-19T05:35:53.056Z,65.23
2023-05-19T05:38:19.366Z,67.08
2023-05-19T05:40:45.635Z,65.96
2023-05-19T05:43:11.955Z,65.00
2023-05-19T05:45:38.249Z,64.86
2023-05-19T05:48:04.540Z,65.50
2023-05-19T05:50:30.956Z,64.69
2023-05-19T05:52:57.225Z,65.57
2023-05-19T05:55:23.505Z,63.92
2023-05-19T05:57:49.779Z,63.14
2023-05-19T06:00:16.039Z,62.53
2023-05-19T06:02:42.382Z,63.90
2023-05-19T06:05:08.688Z,65.82
2023-05-19T06:07:35.042Z,65.66
2023-05-19T06:10:01.343Z,64.37
2023-05-19T06:12:27.623Z,63.98
2023-05-19T06:14:53.916Z,63.03
2023-05-19T06:17:20.195Z,61.84
2023-05-19T06:19:46.463Z,64.98
2023-05-19T06:22:12.728Z,64.16
2023-05-19T06:24:39.650Z,65.56
2023-05-19T06:27:06.074Z,65.75
2023-05-19T06:29:32.357Z,65.93
2023-05-19T06:31:58.737Z,67.27
2023-05-19T06:34:25.141Z,67.84
2023-05-19T06:36:51.395Z,67.31
2023-05-19T06:39:17.661Z,67.18
2023-05-19T06:41:43.982Z,67.37
2023-05-19T06:44:10.241Z,67.32
2023-05-19T06:46:36.530Z,67.25
2023-05-19T06:49:02.809Z,67.22
2023-05-19T06:51:29.065Z,66.08
2023-05-19T06:53:55.386Z,64.67
2023-05-19T06:56:21.659Z,65.77
2023-05-19T06:58:47.981Z,69.48
2023-05-19T07:01:14.331Z,68.65
2023-05-19T07:03:40.774Z,68.70
2023-05-19T07:06:08.326Z,67.33
2023-05-19T07:08:34.884Z,66.39
2023-05-19T07:11:01.154Z,65.85
2023-05-19T07:13:27.759Z,65.12
2023-05-19T07:15:54.146Z,67.55
2023-05-19T07:18:20.489Z,67.71
2023-05-19T07:20:46.755Z,65.41
2023-05-19T07:23:13.145Z,64.32
2023-05-19T07:25:39.413Z,67.70
2023-05-19T07:28:05.720Z,67.66
2023-05-19T07:30:32.321Z,67.61
2023-05-19T07:32:58.757Z,66.58
2023-05-19T07:35:25.044Z,66.78
2023-05-19T07:37:51.376Z,62.94
2023-05-19T07:40:17.635Z,64.76
2023-05-19T07:42:43.927Z,62.98
2023-05-19T07:45:10.190Z,64.06
2023-05-19T07:47:36.518Z,62.70
2023-05-19T07:50:02.860Z,64.51
2023-05-19T07:52:29.230Z,64.39
2023-05-19T07:54:55.540Z,65.77
2023-05-19T07:57:21.851Z,66.38
2023-05-19T07:59:48.940Z,67.53
2023-05-19T08:02:15.295Z,67.93
2023-05-19T08:04:41.768Z,68.03
2023-05-19T08:07:08.105Z,69.25
2023-05-19T08:09:34.359Z,69.46
2023-05-19T08:12:00.631Z,65.17
2023-05-19T08:14:26.886Z,63.28
2023-05-19T08:16:53.150Z,60.45
2023-05-19T08:19:19.527Z,63.08
2023-05-19T08:21:45.852Z,67.65
2023-05-19T08:24:12.122Z,66.14
2023-05-19T08:26:38.448Z,69.78
2023-05-19T08:29:04.873Z,65.87
2023-05-19T08:31:32.626Z,71.06
2023-05-19T08:33:58.975Z,70.85
2023-05-19T08:36:25.302Z,70.56
2023-05-19T08:38:51.630Z,68.54
2023-05-19T08:41:17.893Z,66.75
2023-05-19T08:43:44.150Z,67.65
2023-05-19T08:46:10.518Z,67.70
2023-05-19T08:48:36.800Z,67.83
2023-05-19T08:51:03.089Z,64.38
2023-05-19T08:53:33.839Z,64.81
2023-05-19T08:56:00.752Z,63.76
2023-05-19T08:58:28.672Z,66.18
2023-05-19T09:00:56.061Z,66.44
2023-05-19T09:03:23.899Z,65.16
2023-05-19T09:05:50.600Z,64.64
2023-05-19T09:08:16.898Z,64.36
2023-05-19T09:10:43.170Z,67.06
2023-05-19T09:13:09.431Z,66.60
2023-05-19T09:15:35.869Z,63.25
2023-05-19T09:18:02.290Z,62.94
2023-05-19T09:20:28.615Z,64.89
2023-05-19T09:22:54.927Z,63.13
2023-05-19T09:25:21.320Z,62.08
2023-05-19T09:27:47.652Z,64.18
2023-05-19T09:30:13.934Z,61.44
2023-05-19T09:32:40.271Z,62.14
2023-05-19T09:35:06.690Z,63.91
2023-05-19T09:37:32.958Z,64.63
2023-05-19T09:39:59.252Z,60.76
2023-05-19T09:42:25.511Z,60.93
2023-05-19T09:44:51.777Z,60.51
2023-05-19T09:47:18.048Z,59.49
2023-05-19T09:49:44.360Z,58.67
2023-05-19T09:52:11.216Z,63.69
2023-05-19T09:54:38.951Z,59.56
2023-05-19T09:57:07.050Z,58.85
2023-05-19T09:59:34.505Z,57.52
2023-05-19T10:02:00.831Z,56.89
2023-05-19T10:04:27.175Z,57.14
2023-05-19T10:06:53.577Z,55.10
2023-05-19T10:09:19.852Z,56.47
2023-05-19T10:11:46.126Z,58.35
2023-05-19T10:14:12.409Z,56.84
2023-05-19T10:16:38.723Z,54.15
2023-05-19T10:19:05.157Z,51.87
2023-05-19T10:21:31.574Z,52.88
2023-05-19T10:23:57.852Z,52.37
2023-05-19T10:26:24.110Z,55.45
2023-05-19T10:28:50.391Z,52.12
2023-05-19T10:31:16.706Z,54.21
2023-05-19T10:33:43.009Z,53.36
2023-05-19T10:36:09.288Z,56.33
2023-05-19T10:38:35.555Z,57.45
2023-05-19T10:41:01.832Z,56.02
2023-05-19T10:43:28.185Z,55.90
2023-05-19T10:45:54.519Z,52.85
2023-05-19T10:48:20.815Z,54.91
2023-05-19T10:50:47.082Z,57.57
2023-05-19T10:53:13.349Z,57.71
2023-05-19T10:55:39.688Z,54.93
2023-05-19T10:58:06.671Z,57.04
2023-05-19T11:00:32.971Z,57.20
2023-05-19T11:02:59.304Z,56.65
2023-05-19T11:05:25.565Z,55.70
2023-05-19T11:07:51.902Z,55.82
2023-05-19T11:10:18.157Z,55.07
2023-05-19T11:12:44.436Z,52.50
2023-05-19T11:15:10.717Z,52.66
2023-05-19T11:17:37.023Z,49.13
2023-05-19T11:20:03.330Z,49.12
2023-05-19T11:22:29.670Z,50.48
2023-05-19T11:24:55.931Z,50.17
2023-05-19T11:27:22.201Z,50.53
2023-05-19T11:29:48.480Z,52.95
2023-05-19T11:32:14.937Z,55.48
2023-05-19T11:34:41.246Z,52.89
2023-05-19T11:37:07.541Z,53.47
2023-05-19T11:39:33.821Z,52.62
2023-05-19T11:42:00.113Z,53.50
2023-05-19T11:44:26.445Z,51.10
2023-05-19T11:46:52.852Z,53.18
2023-05-19T11:49:19.204Z,51.04
2023-05-19T11:51:45.465Z,52.04
2023-05-19T11:54:11.746Z,51.01
2023-05-19T11:56:38.012Z,52.87
2023-05-19T11:59:04.393Z,52.87
2023-05-19T12:01:30.651Z,53.89
2023-05-19T12:03:57.082Z,56.12
2023-05-19T12:06:23.497Z,56.69
2023-05-19T12:08:49.791Z,54.77
2023-05-19T12:11:16.987Z,54.40
2023-05-19T12:13:44.380Z,54.60
2023-05-19T12:16:10.716Z,54.73
2023-05-19T12:18:37.159Z,52.16
2023-05-19T12:21:03.503Z,53.11
2023-05-19T12:23:29.821Z,50.48
2023-05-19T12:25:56.115Z,52.18
2023-05-19T12:28:22.378Z,52.75
2023-05-19T12:30:48.651Z,52.93
2023-05-19T12:33:15.149Z,54.59
2023-05-19T12:35:41.596Z,54.66
2023-05-19T12:38:08.026Z,57.18
2023-05-19T12:40:34.642Z,56.96
2023-05-19T12:43:01.211Z,54.50
2023-05-19T12:45:27.548Z,54.53
2023-05-19T12:47:53.873Z,55.13
2023-05-19T12:50:20.285Z,55.12
2023-05-19T12:52:46.584Z,54.04
2023-05-19T12:55:13.365Z,55.07
2023-05-19T12:57:39.786Z,55.41
2023-05-19T13:00:06.109Z,55.43
2023-05-19T13:02:32.517Z,55.71
2023-05-19T13:04:58.857Z,58.01
2023-05-19T13:07:25.133Z,57.90
2023-05-19T13:09:51.433Z,56.53
2023-05-19T13:12:17.707Z,56.04
2023-05-19T13:14:43.992Z,57.46
2023-05-19T13:17:10.301Z,57.03
2023-05-19T13:19:36.698Z,56.69
2023-05-19T13:22:02.984Z,57.54
2023-05-19T13:24:29.317Z,59.73
2023-05-19T13:26:56.172Z,59.29
2023-05-19T13:29:22.537Z,59.56
2023-05-19T13:31:48.899Z,58.31
2023-05-19T13:34:15.165Z,58.20
2023-05-19T13:36:41.483Z,56.92
2023-05-19T13:39:07.769Z,56.70
2023-05-19T13:41:34.084Z,56.78
2023-05-19T13:44:00.382Z,59.88
2023-05-19T13:46:43.486Z,60.76
2023-05-19T13:49:11.887Z,58.30
2023-05-19T13:51:38.143Z,59.24
2023-05-19T13:54:04.413Z,59.43
2023-05-19T13:56:30.688Z,57.69
2023-05-19T13:58:57.025Z,57.86
2023-05-19T14:01:23.365Z,58.32
2023-05-19T14:03:49.908Z,58.37
2023-05-19T14:06:16.399Z,60.00
2023-05-19T14:08:42.698Z,57.94
2023-05-19T14:11:08.997Z,56.60
2023-05-19T14:13:37.293Z,57.28
2023-05-19T14:16:07.341Z,58.81
2023-05-19T14:18:33.757Z,60.58
2023-05-19T14:21:00.005Z,59.46
2023-05-19T14:23:26.286Z,57.65
2023-05-19T14:25:52.617Z,60.02
2023-05-19T14:28:18.872Z,59.02
2023-05-19T14:30:45.531Z,57.00
2023-05-19T14:33:11.865Z,57.67
2023-05-19T14:35:38.224Z,56.91
2023-05-19T14:38:04.499Z,58.48
2023-05-19T14:40:30.895Z,56.70
2023-05-19T14:42:57.465Z,58.39
2023-05-19T14:45:23.748Z,56.33
2023-05-19T14:47:50.075Z,55.35
2023-05-19T14:50:16.441Z,54.93
2023-05-19T14:52:42.731Z,55.74
2023-05-19T14:55:09.676Z,56.30
2023-05-19T14:57:35.950Z,56.01
2023-05-19T15:00:02.236Z,55.46
2023-05-19T15:02:29.679Z,54.89
2023-05-19T15:04:56.175Z,55.39
2023-05-19T15:07:22.476Z,57.07
2023-05-19T15:09:48.732Z,58.04
2023-05-19T15:12:14.999Z,57.42
2023-05-19T15:14:41.318Z,57.48
2023-05-19T15:17:07.688Z,59.19
2023-05-19T15:19:34.041Z,59.17
2023-05-19T15:22:00.337Z,58.76
2023-05-19T15:24:26.614Z,59.02
2023-05-19T15:26:52.930Z,56.26
2023-05-19T15:29:19.220Z,58.27
2023-05-19T15:31:45.641Z,57.06
2023-05-19T15:34:12.015Z,59.59
2023-05-19T15:36:38.315Z,59.01
2023-05-19T15:39:04.585Z,58.33
2023-05-19T15:41:30.868Z,57.12
2023-05-19T15:43:57.270Z,57.66
2023-05-19T15:46:23.654Z,58.15
2023-05-19T15:48:50.031Z,57.56
2023-05-19T15:51:16.317Z,59.15
2023-05-19T15:53:42.598Z,56.87
2023-05-19T15:56:08.867Z,57.11
2023-05-19T15:58:35.208Z,58.39
2023-05-19T16:01:01.478Z,58.18
2023-05-19T16:03:27.903Z,56.54
2023-05-19T16:05:54.260Z,55.96
2023-05-19T16:08:20.522Z,56.25
2023-05-19T16:10:46.782Z,58.61
2023-05-19T16:13:13.070Z,57.14
2023-05-19T16:15:39.366Z,56.37
2023-05-19T16:18:05.734Z,55.87
2023-05-19T16:20:32.223Z,54.68
2023-05-19T16:22:58.653Z,57.29
2023-05-19T16:25:24.943Z,56.73
2023-05-19T16:27:51.214Z,56.59
2023-05-19T16:30:17.522Z,58.05
2023-05-19T16:32:43.851Z,57.68
2023-05-19T16:35:10.155Z,58.04
2023-05-19T16:37:36.457Z,57.47
2023-05-19T16:40:02.753Z,58.78
2023-05-19T16:42:29.041Z,58.55
2023-05-19T16:44:55.319Z,57.59
2023-05-19T16:47:21.624Z,58.02
2023-05-19T16:49:47.922Z,58.58
2023-05-19T16:52:14.204Z,58.47
2023-05-19T16:54:40.492Z,58.51
2023-05-19T16:57:06.755Z,58.25
2023-05-19T16:59:33.007Z,57.22
2023-05-19T17:01:59.383Z,58.32
2023-05-19T17:04:25.686Z,58.10
2023-05-19T17:06:51.953Z,58.53
2023-05-19T17:09:18.236Z,58.73
2023-05-19T17:11:44.556Z,58.07
2023-05-19T17:14:10.888Z,57.11
2023-05-19T17:16:37.168Z,55.98
2023-05-19T17:19:03.551Z,57.24
2023-05-19T17:21:29.855Z,57.36
2023-05-19T17:23:56.155Z,57.87
2023-05-19T17:26:22.489Z,58.01
2023-05-19T17:28:48.782Z,59.22
2023-05-19T17:31:15.131Z,58.13
2023-05-19T17:33:41.443Z,58.88
2023-05-19T17:36:07.725Z,58.62
2023-05-19T17:38:34.020Z,56.94
2023-05-19T17:41:00.339Z,58.22
2023-05-19T17:43:26.643Z,59.83
2023-05-19T17:45:53.008Z,61.01
2023-05-19T17:48:19.297Z,61.01
2023-05-19T17:50:45.580Z,60.09
2023-05-19T17:53:11.828Z,60.51
2023-05-19T17:55:38.099Z,60.70
2023-05-19T17:58:04.393Z,62.66
2023-05-19T18:00:30.666Z,62.03
2023-05-19T18:02:57.099Z,60.96
2023-05-19T18:05:25.560Z,59.40
2023-05-19T18:07:51.830Z,60.96
2023-05-19T18:10:18.111Z,60.99
2023-05-19T18:12:44.368Z,59.53
2023-05-19T18:15:10.666Z,60.49
2023-05-19T18:17:37.048Z,59.78
2023-05-19T18:20:03.382Z,59.80
2023-05-19T18:22:29.676Z,61.71
2023-05-19T18:24:55.963Z,62.27
2023-05-19T18:27:22.320Z,61.56
2023-05-19T18:29:49.679Z,60.68
2023-05-19T18:32:16.000Z,61.24
2023-05-19T18:34:42.369Z,61.17
2023-05-19T18:37:08.650Z,60.91
2023-05-19T18:39:34.929Z,60.09
2023-05-19T18:42:01.223Z,60.31
2023-05-19T18:44:27.492Z,60.58
2023-05-19T18:46:53.764Z,60.76
2023-05-19T18:49:20.058Z,62.70
2023-05-19T18:51:46.355Z,61.38
2023-05-19T18:54:12.636Z,60.53
2023-05-19T18:56:38.932Z,61.47
2023-05-19T18:59:05.251Z,62.31
2023-05-19T19:01:31.566Z,62.20
2023-05-19T19:03:57.842Z,62.51
2023-05-19T19:06:24.183Z,63.05
2023-05-19T19:08:51.417Z,64.01
2023-05-19T19:11:17.840Z,63.57
2023-05-19T19:13:44.259Z,65.10
2023-05-19T19:16:10.651Z,64.37
2023-05-19T19:18:37.042Z,66.69
2023-05-19T19:21:03.386Z,66.26
2023-05-19T19:23:29.679Z,64.68
2023-05-19T19:25:56.018Z,66.28
2023-05-19T19:28:22.390Z,66.21
2023-05-19T19:30:48.742Z,66.96
2023-05-19T19:33:15.167Z,66.20
2023-05-19T19:35:41.529Z,65.05
2023-05-19T19:38:07.902Z,65.31
2023-05-19T19:40:34.494Z,65.04
2023-05-19T19:43:01.084Z,63.69
2023-05-19T19:45:27.377Z,63.80
2023-05-19T19:47:53.752Z,64.36
2023-05-19T19:50:20.112Z,66.56
2023-05-19T19:52:46.478Z,66.63
2023-05-19T19:55:12.783Z,66.36
2023-05-19T19:57:39.121Z,65.68
2023-05-19T20:00:05.481Z,64.86
2023-05-19T20:02:31.882Z,65.28
2023-05-19T20:04:58.228Z,66.06
2023-05-19T20:07:24.577Z,66.64
2023-05-19T20:09:50.911Z,67.18
2023-05-19T20:12:17.209Z,67.01
2023-05-19T20:14:43.540Z,68.86
2023-05-19T20:17:09.828Z,65.60
2023-05-19T20:19:36.184Z,66.41
2023-05-19T20:22:02.493Z,68.65
2023-05-19T20:24:28.805Z,67.88
2023-05-19T20:26:55.131Z,67.29
2023-05-19T20:29:21.431Z,67.98
2023-05-19T20:31:47.704Z,67.84
2023-05-19T20:34:14.006Z,67.17
2023-05-19T20:36:40.286Z,66.28
2023-05-19T20:39:06.544Z,67.82
2023-05-19T20:41:32.900Z,69.35
2023-05-19T20:43:59.185Z,70.06
2023-05-19T20:46:25.597Z,67.93
2023-05-19T20:48:51.971Z,67.18
2023-05-19T20:51:18.254Z,67.81
2023-05-19T20:53:44.588Z,65.05
2023-05-19T20:56:10.887Z,63.83
2023-05-19T20:58:37.144Z,63.18
2023-05-19T21:01:03.487Z,63.36
2023-05-19T21:03:29.771Z,63.42
2023-05-19T21:05:56.067Z,64.35
2023-05-19T21:08:22.342Z,63.63
2023-05-19T21:10:48.651Z,62.62
2023-05-19T21:13:14.925Z,65.85
2023-05-19T21:15:41.188Z,68.38
2023-05-19T21:18:07.646Z,69.51
2023-05-19T21:20:34.226Z,69.01
2023-05-19T21:23:00.702Z,68.57
2023-05-19T21:25:27.055Z,68.41
2023-05-19T21:27:53.333Z,67.74
2023-05-19T21:30:19.622Z,68.75
2023-05-19T21:32:45.933Z,68.56
2023-05-19T21:35:12.337Z,68.54
2023-05-19T21:37:38.630Z,67.07
2023-05-19T21:40:05.024Z,67.21
2023-05-19T21:42:31.292Z,67.38
2023-05-19T21:44:57.581Z,69.09
2023-05-19T21:47:23.832Z,67.86
2023-05-19T21:49:50.175Z,67.59
2023-05-19T21:52:16.437Z,69.92
2023-05-19T21:54:42.692Z,67.97
2023-05-19T21:57:08.981Z,66.48
2023-05-19T21:59:35.262Z,64.96
2023-05-19T22:02:01.590Z,67.29
2023-05-19T22:04:27.884Z,65.93
2023-05-19T22:06:54.172Z,66.12
2023-05-19T22:09:20.429Z,67.65
2023-05-19T22:11:46.697Z,66.96
2023-05-19T22:14:13.029Z,68.71
2023-05-19T22:16:39.381Z,68.13
2023-05-19T22:19:05.775Z,67.54
2023-05-19T22:21:32.098Z,67.33
2023-05-19T22:23:58.425Z,67.19
2023-05-19T22:26:24.693Z,66.40
2023-05-19T22:28:50.967Z,66.34
2023-05-19T22:31:17.317Z,67.73
2023-05-19T22:33:43.576Z,65.36
2023-05-19T22:36:09.940Z,65.13
2023-05-19T22:38:36.201Z,65.04
2023-05-19T22:41:02.474Z,65.68
2023-05-19T22:43:28.758Z,66.14
2023-05-19T22:45:55.055Z,66.50
2023-05-19T22:48:21.364Z,64.89
2023-05-19T22:50:47.683Z,65.82
2023-05-19T22:53:13.951Z,65.94
2023-05-19T22:55:40.220Z,65.20
2023-05-19T22:58:06.526Z,64.83
2023-05-19T23:00:32.903Z,64.76
2023-05-19T23:02:59.333Z,66.91
2023-05-19T23:05:25.618Z,68.46
2023-05-19T23:07:51.971Z,69.43
2023-05-19T23:10:18.237Z,68.35
2023-05-19T23:12:44.567Z,66.01
2023-05-19T23:15:10.896Z,64.61
2023-05-19T23:17:37.231Z,65.00
2023-05-19T23:20:03.540Z,64.63
2023-05-19T23:22:29.822Z,65.26
2023-05-19T23:24:56.093Z,65.33
2023-05-19T23:27:22.369Z,65.15
2023-05-19T23:29:48.634Z,65.03
2023-05-19T23:32:14.901Z,65.22
2023-05-19T23:34:41.193Z,66.09
2023-05-19T23:37:07.460Z,68.74
2023-05-19T23:39:33.745Z,70.01
2023-05-19T23:42:00.024Z,68.32
2023-05-19T23:44:26.292Z,67.43
2023-05-19T23:46:52.622Z,67.28
2023-05-19T23:49:18.913Z,66.46
2023-05-19T23:51:45.176Z,66.15
2023-05-19T23:54:11.472Z,65.15
2023-05-19T23:56:37.926Z,65.09
2023-05-19T23:59:04.217Z,64.72
